KJAN/JAN METAR and TAF weather

Enter ICAO airport designator
Station Type Date Time Source
KJAN METAR 2020/08/14 17:27 UTC NOAA

KJAN 141727Z 32018G29KT 3/4SM R16L/2200VP6000FT +TSRA BR SCT011 BKN022 OVC050 25/23 A3002 RMK AO2 PK WND 34029/1725 LTG DSNT ALQDS RAB03 TSB27 PRESRR P0003 T02500228


Station Type Date Time Source
KJAN Decoded METAR 2020/08/14 17:27 UTC NOAA

Jackson, Jackson International Airport, MS, United States (KJAN) 32-19-11N 090-04-39W 89M
Aug 14, 2020 - 01:27 PM EDT / 2020.08.14 1727 UTC
Wind: from the NW (320 degrees) at 21 MPH (18 KT) gusting to 33 MPH (29 KT):0
Visibility: 3/4 mile(s):0
Sky conditions: overcast
Weather: heavy rain with thunder; mist; Lightning observed
Precipitation last hour: 0.03 inches
Temperature: 77.0 F (25.0 C)
Dew Point: 73.0 F (22.8 C)
Relative Humidity: 87%
Pressure (altimeter): 30.02 in. Hg (1016 hPa)
Pressure tendency: rising rapidly
ob: KJAN 141727Z 32018G29KT 3/4SM R16L/2200VP6000FT +TSRA BR SCT011 BKN022 OVC050 25/23 A3002 RMK AO2 PK WND 34029/1725 LTG DSNT ALQDS RAB03 TSB27 PRESRR P0003 T02500228
cycle: 17

Station Type Date Time Source
KJAN TAF 2020/08/14 15:09 UTC NOAA

TAF
AMD KJAN 141507Z 1415/1512 VRB04KT P6SM VCTS SCT025 BKN040CB
FM141700 30015G25KT 2SM TSRA BKN025CB BKN035
FM142100 VRB04KT P6SM VCSH SCT045 BKN090
FM150300 00000KT P6SM SCT100 BKN250

Example: see airport list